Time;durP1;ratioP1;P1;durP2;ratioP2;P2;SDS_P1;SDS_P2;PMS_P1;PMS_P2;Temp;Humidity;BMP_temperature;BMP_pressure;BME280_temperature;BME280_humidity;BME280_pressure;Samples;Min_cycle;Max_cycle;Signal;HPM_P1;HPM_P2
2021/07/22 00:00:25;;;;;;;32.53;29.53;;;14.30;99.90;;;;;;5064105;28;20474;-70
2021/07/22 00:02:52;;;;;;;37.33;30.57;;;14.30;99.90;;;;;;5060541;28;20490;-70
2021/07/22 00:05:19;;;;;;;31.90;28.80;;;14.30;99.90;;;;;;5060871;28;20512;-70
2021/07/22 00:07:48;;;;;;;31.83;28.50;;;14.30;99.90;;;;;;5064033;28;20457;-70
2021/07/22 00:10:16;;;;;;;32.87;29.60;;;14.30;99.90;;;;;;5063302;28;20490;-70
2021/07/22 00:12:43;;;;;;;31.77;28.83;;;14.30;99.90;;;;;;5062595;28;20621;-70
2021/07/22 00:15:12;;;;;;;32.07;28.97;;;14.20;99.90;;;;;;5064659;28;20781;-72
2021/07/22 00:17:38;;;;;;;33.60;30.20;;;14.10;99.90;;;;;;5065449;28;20495;-71
2021/07/22 00:20:07;;;;;;;33.60;30.10;;;14.10;99.90;;;;;;5064731;28;20475;-70
2021/07/22 00:22:38;;;;;;;35.17;31.60;;;14.10;99.90;;;;;;5064965;28;20469;-71
2021/07/22 00:25:08;;;;;;;30.40;27.73;;;14.20;99.90;;;;;;5057655;28;20806;-70
2021/07/22 00:27:35;;;;;;;31.73;28.83;;;14.20;99.90;;;;;;5057528;28;21142;-71
2021/07/22 00:30:02;;;;;;;34.17;30.87;;;14.20;99.90;;;;;;5052029;28;20533;-73
2021/07/22 00:32:29;;;;;;;32.87;29.57;;;14.20;99.90;;;;;;5052108;28;20466;-70
2021/07/22 00:34:58;;;;;;;31.93;28.83;;;14.20;99.90;;;;;;5061847;28;20524;-71
2021/07/22 00:37:28;;;;;;;33.73;30.43;;;14.20;99.90;;;;;;5058808;28;20469;-70
2021/07/22 00:39:58;;;;;;;31.80;29.00;;;14.20;99.90;;;;;;5056020;28;20475;-70
2021/07/22 00:42:59;;;;;;;30.80;28.00;;;14.30;99.90;;;;;;5060679;28;20483;-70
2021/07/22 00:45:27;;;;;;;29.97;27.23;;;14.20;99.90;;;;;;5058318;28;20459;-72
2021/07/22 00:47:56;;;;;;;33.20;30.00;;;14.20;99.90;;;;;;5057545;28;20459;-72
2021/07/22 00:50:23;;;;;;;30.40;27.70;;;14.20;99.90;;;;;;5060145;28;20499;-70
2021/07/22 00:52:50;;;;;;;30.63;27.53;;;14.20;99.90;;;;;;5060745;28;20463;-72
2021/07/22 00:55:24;;;;;;;33.00;29.87;;;14.20;99.90;;;;;;5061872;28;20463;-73
2021/07/22 00:57:53;;;;;;;34.83;31.23;;;14.30;99.90;;;;;;5055382;28;21007;-72
2021/07/22 01:00:21;;;;;;;34.20;30.40;;;14.40;99.90;;;;;;5055791;28;20747;-71
2021/07/22 01:02:47;;;;;;;30.47;27.40;;;14.40;99.90;;;;;;5060917;28;20591;-72
2021/07/22 01:05:15;;;;;;;32.20;29.00;;;14.50;99.90;;;;;;5055149;28;20461;-70
2021/07/22 01:07:42;;;;;;;31.93;28.97;;;14.60;99.90;;;;;;5063215;28;20554;-70
2021/07/22 01:10:10;;;;;;;32.13;29.13;;;14.70;99.90;;;;;;5058313;28;20501;-70
2021/07/22 01:12:37;;;;;;;32.20;29.20;;;14.70;99.90;;;;;;5054128;28;20469;-71
2021/07/22 01:15:06;;;;;;;32.63;29.27;;;14.80;99.90;;;;;;5058329;28;20460;-70
2021/07/22 01:17:43;;;;;;;30.70;27.90;;;14.90;99.90;;;;;;5055402;28;20827;-70
2021/07/22 01:20:14;;;;;;;32.77;29.40;;;14.90;99.90;;;;;;5054815;28;20462;-72
2021/07/22 01:22:41;;;;;;;31.10;28.27;;;15.00;99.90;;;;;;5060754;28;21056;-70
2021/07/22 01:25:10;;;;;;;31.53;28.90;;;15.00;99.90;;;;;;5061211;28;20882;-72
2021/07/22 01:27:37;;;;;;;32.00;28.70;;;14.90;99.90;;;;;;5057993;28;20953;-70
2021/07/22 01:30:06;;;;;;;32.20;29.30;;;14.70;99.90;;;;;;5054192;28;20503;-71
2021/07/22 01:32:33;;;;;;;35.77;32.07;;;14.60;99.90;;;;;;5061176;28;20496;-72
2021/07/22 01:35:00;;;;;;;34.77;31.33;;;14.50;99.90;;;;;;5058538;28;20467;-72
2021/07/22 01:37:29;;;;;;;36.67;33.07;;;14.30;99.90;;;;;;5063993;28;20553;-72
2021/07/22 01:39:56;;;;;;;35.80;32.10;;;14.20;99.90;;;;;;5054988;28;20480;-70
2021/07/22 01:42:23;;;;;;;38.10;34.20;;;14.20;99.90;;;;;;5059040;28;20487;-71
2021/07/22 01:44:50;;;;;;;35.70;32.13;;;14.20;99.90;;;;;;5054251;28;20470;-70
2021/07/22 01:47:17;;;;;;;38.77;34.23;;;14.10;99.90;;;;;;5058229;28;20486;-72
2021/07/22 01:49:44;;;;;;;36.50;32.70;;;14.00;99.90;;;;;;5061281;28;20534;-70
2021/07/22 01:52:12;;;;;;;34.73;31.33;;;14.00;99.90;;;;;;5061598;28;20468;-73
2021/07/22 01:54:41;;;;;;;35.60;31.93;;;14.00;99.90;;;;;;5061706;28;20470;-72
2021/07/22 01:57:08;;;;;;;38.23;32.73;;;14.00;99.90;;;;;;5056035;28;20874;-71
2021/07/22 01:59:36;;;;;;;37.60;33.43;;;14.00;99.90;;;;;;5055169;28;20470;-71
2021/07/22 02:02:04;;;;;;;35.67;32.07;;;13.90;99.90;;;;;;5053734;28;20970;-71
2021/07/22 02:04:32;;;;;;;38.23;34.20;;;13.90;99.90;;;;;;5054560;28;20494;-71
2021/07/22 02:06:59;;;;;;;39.77;33.10;;;13.90;99.90;;;;;;5063242;28;20466;-71
2021/07/22 02:09:26;;;;;;;35.67;32.07;;;13.80;99.90;;;;;;5059642;28;20491;-71
2021/07/22 02:11:57;;;;;;;36.10;32.33;;;13.70;99.90;;;;;;5053303;28;20486;-70
2021/07/22 02:14:25;;;;;;;36.50;32.77;;;13.70;99.90;;;;;;5055969;28;20463;-71
2021/07/22 02:16:52;;;;;;;38.80;34.60;;;13.60;99.90;;;;;;5053538;28;20457;-70
2021/07/22 02:19:20;;;;;;;38.33;34.60;;;13.60;99.90;;;;;;5059222;28;20708;-71
2021/07/22 02:21:47;;;;;;;39.30;35.10;;;13.70;99.90;;;;;;5064445;28;20466;-71
2021/07/22 02:24:15;;;;;;;36.90;32.90;;;13.60;99.90;;;;;;5060938;28;21269;-71
2021/07/22 02:26:42;;;;;;;37.00;33.13;;;13.60;99.90;;;;;;5054758;28;20459;-72
2021/07/22 02:29:10;;;;;;;36.03;31.13;;;13.60;99.90;;;;;;5057503;28;21419;-71
2021/07/22 02:31:37;;;;;;;34.60;30.97;;;13.60;99.90;;;;;;5052950;28;20458;-71
2021/07/22 02:34:04;;;;;;;35.17;31.60;;;13.60;99.90;;;;;;5057602;28;20463;-71
2021/07/22 02:36:32;;;;;;;36.03;32.30;;;13.60;99.90;;;;;;5054963;28;20467;-70
2021/07/22 02:38:59;;;;;;;35.30;31.50;;;13.50;99.90;;;;;;5056048;28;20529;-72
2021/07/22 02:41:27;;;;;;;38.67;34.77;;;13.50;99.90;;;;;;5059999;28;20575;-73
2021/07/22 02:43:54;;;;;;;36.57;32.87;;;13.50;99.90;;;;;;5058383;28;20485;-72
2021/07/22 02:46:22;;;;;;;39.40;34.90;;;13.40;99.90;;;;;;5059812;28;20462;-71
2021/07/22 02:48:50;;;;;;;42.43;36.10;;;13.40;99.90;;;;;;5053039;28;20459;-71
2021/07/22 02:51:17;;;;;;;40.70;36.30;;;13.40;99.90;;;;;;5056356;28;20486;-71
2021/07/22 02:53:44;;;;;;;42.77;38.00;;;13.40;99.90;;;;;;5060005;28;20966;-71
2021/07/22 02:56:11;;;;;;;53.40;43.60;;;13.40;99.90;;;;;;5065792;28;20981;-71
2021/07/22 02:58:37;;;;;;;51.27;41.63;;;13.40;99.90;;;;;;5061682;28;20949;-72
2021/07/22 03:01:09;;;;;;;48.43;41.80;;;13.30;99.90;;;;;;5060275;28;21024;-73
2021/07/22 03:03:37;;;;;;;58.13;46.00;;;13.30;99.90;;;;;;5064189;28;20466;-72
2021/07/22 03:06:04;;;;;;;51.20;42.30;;;13.30;99.90;;;;;;5062638;28;20542;-71
2021/07/22 03:08:31;;;;;;;43.93;39.20;;;13.30;99.90;;;;;;5066122;28;20467;-70
2021/07/22 03:10:58;;;;;;;44.17;38.40;;;13.30;99.90;;;;;;5066821;28;20499;-71
2021/07/22 03:13:29;;;;;;;47.77;40.80;;;13.30;99.90;;;;;;5060532;28;20565;-71
2021/07/22 03:15:56;;;;;;;47.77;41.20;;;13.30;99.90;;;;;;5065207;28;20473;-71
2021/07/22 03:18:23;;;;;;;51.93;43.13;;;13.20;99.90;;;;;;5064558;28;20486;-71
2021/07/22 03:20:52;;;;;;;59.23;43.30;;;13.20;99.90;;;;;;5066828;28;20584;-71
2021/07/22 03:23:18;;;;;;;54.57;42.33;;;13.20;99.90;;;;;;5067280;28;20466;-72
2021/07/22 03:25:47;;;;;;;45.80;39.30;;;13.20;99.90;;;;;;5067971;28;20462;-71
2021/07/22 03:28:13;;;;;;;53.70;42.87;;;13.10;99.90;;;;;;5066067;28;20458;-72
2021/07/22 03:30:41;;;;;;;55.20;42.23;;;13.10;99.90;;;;;;5064144;28;20490;-71
2021/07/22 03:33:09;;;;;;;47.70;40.43;;;13.20;99.90;;;;;;5064984;28;20462;-71
2021/07/22 03:35:37;;;;;;;44.77;38.87;;;13.10;99.90;;;;;;5064708;28;20470;-71
2021/07/22 03:38:05;;;;;;;46.70;39.70;;;13.10;99.90;;;;;;5064905;28;21032;-71
2021/07/22 03:40:32;;;;;;;44.63;37.97;;;13.10;99.90;;;;;;5067327;28;20482;-71
2021/07/22 03:43:00;;;;;;;53.33;41.80;;;13.10;99.90;;;;;;5062902;28;20479;-71
2021/07/22 03:45:27;;;;;;;50.40;41.13;;;13.00;99.90;;;;;;5063118;28;20458;-73
2021/07/22 03:47:54;;;;;;;49.60;40.50;;;13.00;99.90;;;;;;5064021;28;20965;-71
2021/07/22 03:50:21;;;;;;;44.20;38.80;;;13.00;99.90;;;;;;5065730;28;21082;-71
2021/07/22 03:52:55;;;;;;;42.10;37.70;;;13.10;99.90;;;;;;5066398;28;21151;-71
2021/07/22 03:55:24;;;;;;;46.30;40.17;;;13.10;99.90;;;;;;5065501;28;20467;-70
2021/07/22 03:57:52;;;;;;;52.00;41.80;;;13.10;99.90;;;;;;5065109;28;20517;-71
2021/07/22 04:00:19;;;;;;;49.27;39.60;;;13.00;99.90;;;;;;5063468;28;20469;-70
2021/07/22 04:02:46;;;;;;;48.57;38.67;;;13.10;99.90;;;;;;5057399;28;20457;-71
2021/07/22 04:05:15;;;;;;;46.30;38.63;;;13.10;99.90;;;;;;5060092;28;20544;-71
2021/07/22 04:07:42;;;;;;;52.30;41.17;;;13.10;99.90;;;;;;5058491;28;21278;-71
2021/07/22 04:10:10;;;;;;;44.90;39.30;;;13.10;99.90;;;;;;5062109;28;20486;-70
2021/07/22 04:12:38;;;;;;;47.30;40.00;;;13.20;99.90;;;;;;5061299;28;20550;-71
2021/07/22 04:15:07;;;;;;;49.17;40.00;;;13.20;99.90;;;;;;5056701;28;20486;-72
2021/07/22 04:17:34;;;;;;;44.53;38.37;;;13.30;99.90;;;;;;5061621;28;20511;-70
2021/07/22 04:20:03;;;;;;;56.43;40.17;;;13.40;99.90;;;;;;5061175;28;20471;-72
2021/07/22 04:22:30;;;;;;;46.13;40.57;;;13.40;99.90;;;;;;5060696;28;20465;-71
2021/07/22 04:24:57;;;;;;;43.20;38.77;;;13.60;99.90;;;;;;5060757;28;20456;-71
2021/07/22 04:27:27;;;;;;;48.27;40.30;;;13.60;99.90;;;;;;5062583;28;20466;-70
2021/07/22 04:30:00;;;;;;;51.03;42.27;;;13.70;99.90;;;;;;5059318;28;20487;-71
2021/07/22 04:32:28;;;;;;;55.13;43.77;;;13.80;99.90;;;;;;5059325;28;20888;-70
2021/07/22 04:34:58;;;;;;;51.30;40.70;;;13.90;99.90;;;;;;5055374;28;20927;-71
2021/07/22 04:37:25;;;;;;;42.30;37.90;;;14.00;99.90;;;;;;5061953;28;20463;-71
2021/07/22 04:39:52;;;;;;;44.10;39.00;;;14.10;99.90;;;;;;5062360;28;20487;-72
2021/07/22 04:42:19;;;;;;;51.47;41.80;;;14.10;99.90;;;;;;5060259;28;20497;-73
2021/07/22 04:44:46;;;;;;;44.77;37.90;;;14.10;99.90;;;;;;5060036;28;20533;-71
2021/07/22 04:47:14;;;;;;;44.40;39.60;;;14.20;99.90;;;;;;5058929;28;20838;-71
2021/07/22 04:49:41;;;;;;;52.60;39.57;;;14.30;99.90;;;;;;5057503;28;20459;-71
2021/07/22 04:52:08;;;;;;;60.57;43.87;;;14.40;99.90;;;;;;5059846;28;20500;-70
2021/07/22 04:54:35;;;;;;;64.63;46.47;;;14.40;99.90;;;;;;5059633;28;20463;-71
2021/07/22 04:57:02;;;;;;;55.83;47.07;;;14.50;99.90;;;;;;5061149;28;20470;-71
2021/07/22 04:59:30;;;;;;;51.60;43.80;;;14.60;99.90;;;;;;5057006;28;20509;-71
2021/07/22 05:01:57;;;;;;;47.67;42.47;;;14.70;99.90;;;;;;5052459;28;20807;-72
2021/07/22 05:04:26;;;;;;;47.40;40.27;;;14.80;99.90;;;;;;5053737;28;20463;-71
2021/07/22 05:06:53;;;;;;;47.30;42.17;;;14.90;99.90;;;;;;5060592;28;20835;-72
2021/07/22 05:09:20;;;;;;;56.20;45.90;;;14.90;99.90;;;;;;5060436;28;20468;-71
2021/07/22 05:11:46;;;;;;;56.80;46.80;;;15.00;99.90;;;;;;5057191;28;20487;-71
2021/07/22 05:14:14;;;;;;;60.43;44.40;;;15.10;99.90;;;;;;5050790;28;20473;-71
2021/07/22 05:16:41;;;;;;;57.77;49.40;;;15.10;99.90;;;;;;5062880;28;20887;-72
2021/07/22 05:19:11;;;;;;;58.77;47.40;;;15.20;99.90;;;;;;5061847;28;20490;-73
2021/07/22 05:21:39;;;;;;;51.77;46.13;;;15.30;99.90;;;;;;5060711;28;20455;-72
2021/07/22 05:24:06;;;;;;;59.37;47.67;;;15.30;99.90;;;;;;5060253;28;20466;-72
2021/07/22 05:26:33;;;;;;;62.20;46.77;;;15.40;99.90;;;;;;5059498;28;20558;-71
2021/07/22 05:29:00;;;;;;;58.53;47.80;;;15.50;99.90;;;;;;5060612;28;20460;-70
2021/07/22 05:31:27;;;;;;;54.90;47.50;;;15.60;99.90;;;;;;5058902;28;20490;-72
2021/07/22 05:33:54;;;;;;;59.90;46.80;;;15.70;99.90;;;;;;5062148;28;20812;-71
2021/07/22 05:36:21;;;;;;;50.97;43.50;;;15.80;99.90;;;;;;5061074;28;20550;-71
2021/07/22 05:38:50;;;;;;;59.30;47.10;;;15.90;99.90;;;;;;5061036;28;20474;-71
2021/07/22 05:41:17;;;;;;;50.23;44.97;;;16.10;99.90;;;;;;5062262;28;20494;-71
2021/07/22 05:43:44;;;;;;;51.73;43.90;;;16.30;99.90;;;;;;5058185;28;20469;-70
2021/07/22 05:46:11;;;;;;;49.60;43.37;;;16.40;99.90;;;;;;5062350;28;20459;-71
2021/07/22 05:48:38;;;;;;;49.03;42.50;;;16.40;99.90;;;;;;5061455;28;20899;-70
2021/07/22 05:51:05;;;;;;;48.90;43.60;;;16.60;99.90;;;;;;5062341;28;20495;-70
2021/07/22 05:53:33;;;;;;;47.90;41.87;;;16.90;99.90;;;;;;5064061;28;20482;-70
2021/07/22 05:56:01;;;;;;;46.27;39.70;;;17.20;99.90;;;;;;5063693;28;20466;-70
2021/07/22 05:58:29;;;;;;;46.23;41.30;;;17.30;99.90;;;;;;5060942;28;20486;-70
2021/07/22 06:00:56;;;;;;;50.80;42.20;;;17.60;99.90;;;;;;5059407;28;20466;-70
2021/07/22 06:03:23;;;;;;;56.00;41.97;;;17.70;99.90;;;;;;5061534;28;20459;-70
2021/07/22 06:05:50;;;;;;;50.60;44.33;;;17.80;99.90;;;;;;5060910;28;20486;-70
2021/07/22 06:08:17;;;;;;;46.30;41.10;;;17.90;99.90;;;;;;5064131;28;20493;-70
2021/07/22 06:10:44;;;;;;;46.73;41.80;;;17.80;99.90;;;;;;5060344;28;20486;-70
2021/07/22 06:13:13;;;;;;;51.90;43.70;;;17.70;99.90;;;;;;5062124;28;20490;-70
2021/07/22 06:15:41;;;;;;;54.50;44.23;;;17.80;99.90;;;;;;5061468;28;20457;-71
2021/07/22 06:18:08;;;;;;;48.40;41.23;;;17.90;99.90;;;;;;5061609;28;20463;-70
2021/07/22 06:20:35;;;;;;;54.40;43.57;;;18.00;99.90;;;;;;5058339;28;20550;-73
2021/07/22 06:23:03;;;;;;;53.63;44.37;;;18.10;99.90;;;;;;5059783;28;20462;-70
2021/07/22 06:25:30;;;;;;;49.83;42.03;;;18.20;99.90;;;;;;5050505;28;20459;-70
2021/07/22 06:27:57;;;;;;;44.63;39.87;;;18.20;99.90;;;;;;5063286;28;20462;-70
2021/07/22 06:30:26;;;;;;;49.00;42.10;;;18.30;99.90;;;;;;5058906;28;20498;-70
2021/07/22 06:32:53;;;;;;;47.07;42.03;;;18.40;99.90;;;;;;5057621;28;20462;-71
2021/07/22 06:35:20;;;;;;;48.37;42.70;;;18.40;99.90;;;;;;5054279;28;20467;-71
2021/07/22 06:37:49;;;;;;;52.73;44.80;;;18.50;99.90;;;;;;5058475;28;20463;-71
2021/07/22 06:40:17;;;;;;;50.43;44.87;;;18.60;99.90;;;;;;5053146;28;20479;-70
2021/07/22 06:42:44;;;;;;;48.00;42.07;;;18.50;99.90;;;;;;5057850;28;20484;-71
2021/07/22 06:45:12;;;;;;;48.93;42.07;;;18.70;99.90;;;;;;5061590;28;20482;-70
2021/07/22 06:47:41;;;;;;;49.70;44.00;;;18.80;99.90;;;;;;5059813;28;20455;-73
2021/07/22 06:50:09;;;;;;;51.60;42.70;;;19.10;99.90;;;;;;5058159;28;20972;-71
2021/07/22 06:52:38;;;;;;;48.23;41.90;;;19.30;99.90;;;;;;5060421;28;20524;-70
2021/07/22 06:55:07;;;;;;;58.13;42.00;;;19.30;99.90;;;;;;5055154;28;20467;-71
2021/07/22 06:57:35;;;;;;;49.30;42.60;;;19.40;99.90;;;;;;5058294;28;20522;-71
2021/07/22 07:00:04;;;;;;;46.80;41.47;;;19.60;99.90;;;;;;5054681;28;20464;-70
2021/07/22 07:02:31;;;;;;;44.97;39.93;;;19.90;99.90;;;;;;5062232;28;21085;-69
2021/07/22 07:04:59;;;;;;;48.63;43.47;;;20.30;99.90;;;;;;5061632;28;20469;-71
2021/07/22 07:07:26;;;;;;;45.67;40.57;;;20.40;99.90;;;;;;5061225;28;20459;-71
2021/07/22 07:09:53;;;;;;;47.20;42.00;;;20.60;99.90;;;;;;5056946;28;20479;-73
2021/07/22 07:12:20;;;;;;;45.10;40.20;;;21.00;99.90;;;;;;5053443;28;21496;-71
2021/07/22 07:14:47;;;;;;;47.80;40.30;;;21.50;99.90;;;;;;5063057;28;21033;-74
2021/07/22 07:17:14;;;;;;;41.57;37.27;;;21.90;99.90;;;;;;5053833;28;21095;-71
2021/07/22 07:19:41;;;;;;;41.00;36.70;;;22.30;99.90;;;;;;5057390;28;20467;-71
2021/07/22 07:22:10;;;;;;;41.73;37.27;;;22.80;99.90;;;;;;5056994;28;20475;-71
2021/07/22 07:24:36;;;;;;;41.90;37.60;;;23.00;99.90;;;;;;5056847;28;20486;-71
2021/07/22 07:27:06;;;;;;;39.77;35.70;;;23.40;99.90;;;;;;5061459;28;20859;-71
2021/07/22 07:29:33;;;;;;;43.00;35.97;;;23.40;99.90;;;;;;5050151;28;20565;-71
2021/07/22 07:32:00;;;;;;;39.40;35.00;;;23.60;99.90;;;;;;5059378;28;20765;-70
2021/07/22 07:34:28;;;;;;;48.70;34.30;;;23.70;99.90;;;;;;5056211;28;20827;-73
2021/07/22 07:36:58;;;;;;;36.53;32.63;;;24.00;99.90;;;;;;5055139;28;20466;-71
2021/07/22 07:39:26;;;;;;;34.63;31.33;;;24.20;99.90;;;;;;5061963;28;20868;-70
2021/07/22 07:41:54;;;;;;;37.37;33.23;;;24.10;99.90;;;;;;5059270;28;20476;-70
2021/07/22 07:44:21;;;;;;;34.83;31.53;;;24.40;99.90;;;;;;5058620;28;20961;-71
2021/07/22 07:46:48;;;;;;;34.67;31.33;;;24.50;99.90;;;;;;5058251;28;20463;-71
2021/07/22 07:49:15;;;;;;;35.17;31.73;;;24.80;99.90;;;;;;5055970;28;20860;-74
2021/07/22 07:51:42;;;;;;;33.67;30.13;;;25.30;99.90;;;;;;5060664;28;20561;-72
2021/07/22 07:54:09;;;;;;;31.57;28.47;;;25.40;99.90;;;;;;5055058;28;20467;-70
2021/07/22 07:56:37;;;;;;;32.43;29.17;;;25.40;99.90;;;;;;5059047;28;20470;-71
2021/07/22 07:59:04;;;;;;;32.03;28.03;;;25.40;99.90;;;;;;5056670;28;20528;-71
2021/07/22 08:01:31;;;;;;;28.80;26.40;;;25.40;99.90;;;;;;5058146;28;20465;-73
2021/07/22 08:03:59;;;;;;;30.50;27.50;;;25.60;99.90;;;;;;5058802;28;21065;-74
2021/07/22 08:06:26;;;;;;;30.83;28.00;;;25.80;99.90;;;;;;5055599;28;20540;-72
2021/07/22 08:08:53;;;;;;;30.80;27.80;;;26.00;99.90;;;;;;5062456;28;20470;-71
2021/07/22 08:11:19;;;;;;;31.80;28.50;;;26.00;99.90;;;;;;5057041;28;21008;-71
2021/07/22 08:13:48;;;;;;;28.17;25.67;;;26.00;99.90;;;;;;5059724;28;20485;-71
2021/07/22 08:16:18;;;;;;;29.87;27.00;;;26.00;99.90;;;;;;5059086;28;20463;-72
2021/07/22 08:18:46;;;;;;;29.60;26.90;;;25.80;99.90;;;;;;5062105;28;20467;-75
2021/07/22 08:21:13;;;;;;;29.40;26.67;;;25.80;99.90;;;;;;5061808;28;20459;-69
2021/07/22 08:23:40;;;;;;;27.90;25.40;;;25.90;99.90;;;;;;5059667;28;20474;-70
2021/07/22 08:26:07;;;;;;;28.20;25.70;;;25.60;99.90;;;;;;5062328;28;20459;-72
2021/07/22 08:28:34;;;;;;;29.27;26.47;;;25.80;99.90;;;;;;5064560;28;20459;-71
2021/07/22 08:31:02;;;;;;;29.13;26.40;;;25.90;99.90;;;;;;5060006;28;20471;-71
2021/07/22 08:33:30;;;;;;;30.20;27.43;;;26.00;99.90;;;;;;5056783;28;21496;-71
2021/07/22 08:35:56;;;;;;;27.60;25.20;;;26.00;99.90;;;;;;5064844;28;20455;-71
2021/07/22 08:38:24;;;;;;;29.27;26.77;;;26.00;99.90;;;;;;5062631;28;20467;-71
2021/07/22 08:40:50;;;;;;;29.37;26.87;;;26.30;99.90;;;;;;5060116;28;20486;-71
2021/07/22 08:43:18;;;;;;;28.07;25.60;;;26.50;99.90;;;;;;5062186;28;20475;-71
2021/07/22 08:45:48;;;;;;;28.73;26.03;;;26.90;99.90;;;;;;5063714;28;20475;-71
2021/07/22 08:48:17;;;;;;;28.20;25.60;;;27.40;99.90;;;;;;5064322;28;20832;-75
2021/07/22 08:50:45;;;;;;;27.90;25.50;;;27.60;99.90;;;;;;5065254;28;20466;-71
2021/07/22 08:53:14;;;;;;;29.00;26.50;;;27.80;99.90;;;;;;5054404;28;20496;-74
2021/07/22 08:55:44;;;;;;;30.13;27.27;;;28.30;99.90;;;;;;5058314;28;20463;-71
2021/07/22 08:58:11;;;;;;;28.47;25.97;;;28.60;99.90;;;;;;5057547;28;21265;-71
2021/07/22 09:00:38;;;;;;;31.73;28.80;;;28.90;99.90;;;;;;5057905;28;20473;-71
2021/07/22 09:03:11;;;;;;;34.53;31.20;;;28.60;99.90;;;;;;5064210;28;20468;-72
2021/07/22 09:05:40;;;;;;;32.63;29.27;;;28.10;99.90;;;;;;5063572;28;20846;-75
2021/07/22 09:08:07;;;;;;;31.00;28.30;;;27.90;99.90;;;;;;5062603;28;20473;-73
2021/07/22 09:10:34;;;;;;;31.80;28.93;;;27.30;99.90;;;;;;5063050;28;20459;-71
2021/07/22 09:13:01;;;;;;;33.67;30.53;;;27.00;99.90;;;;;;5061168;28;20824;-71
2021/07/22 09:15:29;;;;;;;32.40;29.60;;;27.00;99.90;;;;;;5062494;28;20462;-71
2021/07/22 09:17:56;;;;;;;33.10;29.80;;;27.20;99.90;;;;;;5063678;28;20503;-72
2021/07/22 09:20:32;;;;;;;30.90;27.97;;;27.70;99.90;;;;;;5061463;28;20566;-73
2021/07/22 09:23:02;;;;;;;31.03;28.07;;;28.20;99.90;;;;;;5063038;28;20474;-72
2021/07/22 09:25:41;;;;;;;30.90;28.00;;;28.20;99.90;;;;;;5057611;28;20470;-72
2021/07/22 09:28:08;;;;;;;28.33;25.73;;;27.60;99.90;;;;;;5062142;28;20458;-70
2021/07/22 09:30:36;;;;;;;29.43;26.80;;;27.30;99.90;;;;;;5061657;28;21152;-70
2021/07/22 09:33:04;;;;;;;27.90;25.23;;;27.10;99.90;;;;;;5064338;28;20499;-71
2021/07/22 09:35:35;;;;;;;26.40;24.10;;;27.00;99.90;;;;;;5063606;28;20455;-71
2021/07/22 09:38:11;;;;;;;26.10;23.80;;;27.50;99.90;;;;;;5059436;28;20465;-70
2021/07/22 09:40:38;;;;;;;30.50;26.27;;;28.30;99.20;;;;;;5060956;28;20494;-71
2021/07/22 09:43:05;;;;;;;25.93;23.60;;;28.70;98.10;;;;;;5058936;28;20577;-71
2021/07/22 09:45:35;;;;;;;25.83;23.70;;;29.20;98.10;;;;;;5054051;28;20451;-71
2021/07/22 09:48:09;;;;;;;27.03;24.40;;;29.40;97.70;;;;;;5060170;28;20455;-71
2021/07/22 09:50:41;;;;;;;29.67;26.80;;;29.30;97.30;;;;;;5058381;28;20555;-71
2021/07/22 09:53:11;;;;;;;29.30;26.53;;;29.40;98.00;;;;;;5057900;28;20501;-72
2021/07/22 09:55:39;;;;;;;28.30;25.70;;;29.40;98.10;;;;;;5055372;28;20468;-74
2021/07/22 09:58:08;;;;;;;33.33;29.13;;;29.40;97.30;;;;;;5059563;28;20467;-75
2021/07/22 10:00:36;;;;;;;30.13;27.30;;;29.00;97.40;;;;;;5052214;28;20474;-71
2021/07/22 10:03:05;;;;;;;29.27;26.57;;;28.60;98.70;;;;;;5054996;28;21240;-71
2021/07/22 10:05:37;;;;;;;28.33;25.53;;;29.20;97.80;;;;;;5058627;28;20558;-71
2021/07/22 10:08:06;;;;;;;30.67;27.87;;;29.60;97.30;;;;;;5058728;28;20463;-72
2021/07/22 10:10:37;;;;;;;29.63;26.80;;;30.10;95.90;;;;;;5061090;28;20467;-74
2021/07/22 10:13:04;;;;;;;32.17;29.27;;;30.80;96.80;;;;;;5059900;28;20496;-74
2021/07/22 10:15:35;;;;;;;31.10;28.40;;;30.90;95.60;;;;;;5059257;28;20471;-68
2021/07/22 10:18:02;;;;;;;30.50;27.70;;;31.30;95.40;;;;;;5061424;28;20455;-69
2021/07/22 10:20:31;;;;;;;30.03;27.23;;;31.60;94.30;;;;;;5060290;28;20469;-69
2021/07/22 10:22:58;;;;;;;31.33;28.07;;;31.30;94.80;;;;;;5059186;28;20463;-69
2021/07/22 10:25:26;;;;;;;32.63;29.33;;;30.50;95.60;;;;;;5061995;28;20478;-68
2021/07/22 10:27:56;;;;;;;33.30;29.80;;;29.40;97.20;;;;;;5061224;28;20477;-68
2021/07/22 10:30:25;;;;;;;30.40;27.53;;;29.10;97.40;;;;;;5053318;28;20956;-68
2021/07/22 10:32:54;;;;;;;30.50;27.77;;;29.40;98.30;;;;;;5056458;28;20493;-71
2021/07/22 10:35:22;;;;;;;31.80;28.97;;;30.10;97.00;;;;;;5059746;28;20471;-70
2021/07/22 10:38:06;;;;;;;32.03;28.87;;;30.70;96.00;;;;;;5062194;28;20471;-72
2021/07/22 10:40:46;;;;;;;31.00;28.10;;;30.90;95.50;;;;;;5060194;28;20569;-69
2021/07/22 10:43:37;;;;;;;30.47;27.83;;;31.80;94.10;;;;;;5057274;28;20526;-69
2021/07/22 10:46:05;;;;;;;30.30;27.60;;;30.80;94.00;;;;;;5054514;28;20462;-72
2021/07/22 10:48:32;;;;;;;31.53;28.83;;;30.80;95.30;;;;;;5054369;28;20471;-69
2021/07/22 10:51:05;;;;;;;31.03;27.80;;;30.90;94.10;;;;;;5056540;28;20823;-72
2021/07/22 10:53:40;;;;;;;32.00;29.00;;;30.40;94.90;;;;;;5055744;28;20494;-69
2021/07/22 10:56:08;;;;;;;31.47;28.37;;;31.30;95.20;;;;;;5058435;28;20488;-69
2021/07/22 10:58:50;;;;;;;31.03;27.57;;;31.90;93.90;;;;;;5057217;28;20468;-68
2021/07/22 11:01:50;;;;;;;35.93;32.40;;;31.90;92.90;;;;;;5057069;28;20891;-71
2021/07/22 11:04:42;;;;;;;32.63;29.53;;;30.90;93.30;;;;;;5054316;28;20468;-69
2021/07/22 11:07:20;;;;;;;35.27;31.57;;;30.60;94.50;;;;;;5060297;28;20454;-68
2021/07/22 11:09:48;;;;;;;35.63;32.03;;;29.80;97.30;;;;;;5058644;28;20459;-68
2021/07/22 11:12:47;;;;;;;34.53;31.00;;;28.90;99.00;;;;;;5055344;28;20526;-68
2021/07/22 11:15:39;;;;;;;36.93;33.03;;;28.30;99.90;;;;;;5063262;28;20823;-69
2021/07/22 11:18:39;;;;;;;38.40;34.60;;;28.10;99.90;;;;;;5062097;28;20542;-72
2021/07/22 11:21:07;;;;;;;39.43;34.00;;;27.70;99.90;;;;;;5057896;28;20467;-69
2021/07/22 11:23:34;;;;;;;37.23;33.30;;;27.30;99.90;;;;;;5061183;28;20833;-71
2021/07/22 11:26:01;;;;;;;40.27;36.07;;;27.20;99.90;;;;;;5064153;28;20467;-70
2021/07/22 11:28:29;;;;;;;36.70;33.03;;;27.30;99.90;;;;;;5063327;28;20463;-69
2021/07/22 11:31:04;;;;;;;37.47;33.80;;;27.20;99.90;;;;;;5061250;28;20650;-68
2021/07/22 11:33:32;;;;;;;36.47;32.97;;;27.10;99.90;;;;;;5061518;28;20536;-70
2021/07/22 11:36:01;;;;;;;35.10;31.83;;;27.00;99.90;;;;;;5062227;28;20877;-68
2021/07/22 11:38:28;;;;;;;34.23;30.87;;;27.30;99.90;;;;;;5063634;28;20545;-69
2021/07/22 11:40:56;;;;;;;33.90;30.73;;;28.50;99.90;;;;;;5057570;28;20475;-68
2021/07/22 11:43:33;;;;;;;34.97;31.93;;;29.90;98.80;;;;;;5061746;28;20809;-72
2021/07/22 11:46:01;;;;;;;36.70;33.10;;;30.40;98.90;;;;;;5064048;28;20458;-74
2021/07/22 11:48:28;;;;;;;37.80;34.17;;;30.00;99.60;;;;;;5064547;28;20459;-73
2021/07/22 11:51:08;;;;;;;37.73;34.07;;;28.90;99.90;;;;;;5061170;28;20470;-68
2021/07/22 11:53:36;;;;;;;38.40;34.30;;;28.10;99.90;;;;;;5056209;28;20868;-68
2021/07/22 11:56:12;;;;;;;35.73;32.23;;;27.90;99.90;;;;;;5060473;28;20966;-71
2021/07/22 11:58:39;;;;;;;34.77;31.60;;;28.00;99.90;;;;;;5060291;28;20467;-68
2021/07/22 12:01:08;;;;;;;35.97;32.23;;;27.90;99.90;;;;;;5060873;28;20451;-69
2021/07/22 12:03:35;;;;;;;35.00;31.73;;;27.80;99.90;;;;;;5061998;28;20844;-68
2021/07/22 12:06:02;;;;;;;34.70;31.63;;;27.50;99.90;;;;;;5055873;28;20470;-71
2021/07/22 12:08:28;;;;;;;35.80;31.33;;;27.50;99.90;;;;;;5056527;28;20467;-68
2021/07/22 12:10:59;;;;;;;32.47;29.17;;;27.90;99.90;;;;;;5053764;28;20468;-69
2021/07/22 12:13:26;;;;;;;32.40;29.37;;;29.10;99.90;;;;;;5062334;28;20487;-69
2021/07/22 12:15:54;;;;;;;30.90;27.67;;;29.60;99.80;;;;;;5060854;28;20484;-69
2021/07/22 12:18:24;;;;;;;31.07;27.87;;;30.30;98.60;;;;;;5062899;28;20459;-69
2021/07/22 12:20:52;;;;;;;28.43;25.93;;;30.90;97.30;;;;;;5064008;28;20886;-70
2021/07/22 12:23:43;;;;;;;30.43;27.47;;;31.70;95.70;;;;;;5057472;28;20517;-70
2021/07/22 12:26:09;;;;;;;26.50;24.23;;;32.10;93.40;;;;;;5055927;28;20463;-69
2021/07/22 12:28:36;;;;;;;28.30;25.80;;;32.80;94.30;;;;;;5061730;28;20459;-74
2021/07/22 12:31:21;;;;;;;27.83;25.47;;;33.40;93.50;;;;;;5063387;28;20474;-73
2021/07/22 12:34:00;;;;;;;28.33;25.83;;;33.90;91.20;;;;;;5058850;28;21212;-68
2021/07/22 12:36:30;;;;;;;28.30;25.90;;;34.30;90.60;;;;;;5055122;28;20459;-73